createdAt,value
2023-06-27T00:02:23.094Z,101989.47
2023-06-27T00:04:50.762Z,101984.19
2023-06-27T00:07:18.406Z,101986.88
2023-06-27T00:09:46.088Z,101983.22
2023-06-27T00:12:13.872Z,101987.63
2023-06-27T00:14:41.417Z,101981.31
2023-06-27T00:17:13.621Z,101976.91
2023-06-27T00:19:41.608Z,101981.06
2023-06-27T00:22:10.782Z,101982.78
2023-06-27T00:24:39.088Z,101988.88
2023-06-27T00:27:07.491Z,101987.03
2023-06-27T00:29:35.556Z,101983.59
2023-06-27T00:32:03.243Z,101990.63
2023-06-27T00:34:30.831Z,101987.06
2023-06-27T00:36:58.450Z,101988.97
2023-06-27T00:39:26.146Z,101992.38
2023-06-27T00:41:55.456Z,101983.38
2023-06-27T00:44:23.122Z,101984.22
2023-06-27T00:46:53.220Z,101987.84
2023-06-27T00:49:21.964Z,101983.28
2023-06-27T00:51:50.899Z,101991.97
2023-06-27T00:54:19.647Z,101984.09
2023-06-27T00:56:47.552Z,101971.88
2023-06-27T00:59:15.253Z,101981.34
2023-06-27T01:01:43.399Z,101977.00
2023-06-27T01:04:10.986Z,101978.94
2023-06-27T01:06:45.763Z,101976.25
2023-06-27T01:09:39.232Z,101982.50
2023-06-27T01:12:28.659Z,101975.63
2023-06-27T01:15:00.079Z,101977.53
2023-06-27T01:17:34.076Z,101978.59
2023-06-27T01:20:03.307Z,101976.22
2023-06-27T01:22:46.569Z,101977.41
2023-06-27T01:25:14.627Z,101981.97
2023-06-27T01:27:42.305Z,101972.59
2023-06-27T01:30:10.447Z,101980.47
2023-06-27T01:33:02.903Z,101980.47
2023-06-27T01:35:35.339Z,101978.09
2023-06-27T01:38:10.463Z,101960.72
2023-06-27T01:40:39.115Z,101969.50
2023-06-27T01:43:11.796Z,101968.81
2023-06-27T01:45:42.295Z,101967.19
2023-06-27T01:48:10.393Z,101965.47
2023-06-27T01:50:38.101Z,101966.34
2023-06-27T01:53:05.773Z,101970.53
2023-06-27T01:55:34.206Z,101964.44
2023-06-27T01:58:03.002Z,101968.69
2023-06-27T02:00:30.862Z,101973.06
2023-06-27T02:02:58.540Z,101965.25
2023-06-27T02:05:26.257Z,101964.38
2023-06-27T02:07:53.826Z,101971.44
2023-06-27T02:10:21.650Z,101975.94
2023-06-27T02:12:49.179Z,101969.94
2023-06-27T02:15:16.710Z,101976.13
2023-06-27T02:17:44.320Z,101986.69
2023-06-27T02:20:12.193Z,101976.03
2023-06-27T02:22:39.779Z,101977.91
2023-06-27T02:25:07.531Z,101978.66
2023-06-27T02:27:35.150Z,101966.56
2023-06-27T02:30:02.961Z,101965.78
2023-06-27T02:32:30.755Z,101963.91
2023-06-27T02:34:58.298Z,101967.38
2023-06-27T02:37:25.921Z,101967.31
2023-06-27T02:39:53.757Z,101962.06
2023-06-27T02:42:21.413Z,101965.47
2023-06-27T02:44:49.786Z,101958.56
2023-06-27T02:47:17.962Z,101968.31
2023-06-27T02:49:45.506Z,101958.59
2023-06-27T02:52:13.086Z,101966.69
2023-06-27T02:54:40.666Z,101957.97
2023-06-27T02:57:08.508Z,101978.13
2023-06-27T02:59:36.131Z,101977.28
2023-06-27T03:02:04.074Z,101978.22
2023-06-27T03:04:31.829Z,101971.19
2023-06-27T03:06:59.497Z,101964.22
2023-06-27T03:09:27.184Z,101971.16
2023-06-27T03:11:54.829Z,101968.63
2023-06-27T03:14:22.844Z,101967.59
2023-06-27T03:16:50.519Z,101969.34
2023-06-27T03:19:22.497Z,101971.84
2023-06-27T03:21:55.020Z,101978.84
2023-06-27T03:24:22.575Z,101975.34
2023-06-27T03:26:50.129Z,101976.28
2023-06-27T03:29:17.678Z,101977.22
2023-06-27T03:31:45.288Z,101970.09
2023-06-27T03:34:12.944Z,101966.69
2023-06-27T03:36:40.557Z,101977.84
2023-06-27T03:39:08.141Z,101974.44
2023-06-27T03:41:35.783Z,101981.44
2023-06-27T03:44:03.486Z,101976.03
2023-06-27T03:46:31.063Z,101962.78
2023-06-27T03:49:00.005Z,101974.22
2023-06-27T03:51:28.453Z,101962.78
2023-06-27T03:53:56.103Z,101976.81
2023-06-27T03:56:23.741Z,101970.66
2023-06-27T03:58:51.402Z,101965.34
2023-06-27T04:01:19.049Z,101967.06
2023-06-27T04:03:47.529Z,101966.16
2023-06-27T04:06:15.265Z,101967.88
2023-06-27T04:08:43.981Z,101974.84
2023-06-27T04:11:11.559Z,101969.53
2023-06-27T04:13:39.302Z,101974.75
2023-06-27T04:16:07.252Z,101972.81
2023-06-27T04:18:34.826Z,101966.72
2023-06-27T04:21:02.372Z,101975.50
2023-06-27T04:23:29.971Z,101970.13
2023-06-27T04:26:05.872Z,101973.44
2023-06-27T04:28:33.735Z,101964.88
2023-06-27T04:31:02.631Z,101974.53
2023-06-27T04:33:31.406Z,101969.16
2023-06-27T04:36:02.405Z,101979.78
2023-06-27T04:38:38.515Z,101978.81
2023-06-27T04:41:10.429Z,101985.69
2023-06-27T04:43:40.344Z,101979.38
2023-06-27T04:46:08.436Z,101986.31
2023-06-27T04:48:36.106Z,101995.91
2023-06-27T04:51:04.345Z,101992.41
2023-06-27T04:53:33.342Z,101983.69
2023-06-27T04:56:01.044Z,101995.03
2023-06-27T04:58:28.889Z,101993.31
2023-06-27T05:00:56.637Z,101994.28
2023-06-27T05:03:24.355Z,101990.81
2023-06-27T05:05:52.017Z,101993.41
2023-06-27T05:08:19.683Z,101997.88
2023-06-27T05:10:50.114Z,101996.06
2023-06-27T05:13:17.903Z,101997.84
2023-06-27T05:15:47.344Z,101996.03
2023-06-27T05:18:16.414Z,101993.28
2023-06-27T05:20:44.772Z,101993.22
2023-06-27T05:23:12.896Z,102000.75
2023-06-27T05:25:40.886Z,101993.34
2023-06-27T05:28:09.160Z,101982.84
2023-06-27T05:30:36.882Z,101984.59
2023-06-27T05:33:04.785Z,101989.84
2023-06-27T05:35:32.554Z,101988.13
2023-06-27T05:38:01.271Z,101989.09
2023-06-27T05:40:30.337Z,101986.94
2023-06-27T05:42:57.968Z,101992.31
2023-06-27T05:45:25.953Z,101997.34
2023-06-27T05:47:53.731Z,101989.19
2023-06-27T05:50:21.544Z,101997.75
2023-06-27T05:52:49.296Z,101999.94
2023-06-27T05:55:17.067Z,102000.53
2023-06-27T05:57:44.717Z,101997.41
2023-06-27T06:00:14.585Z,101995.28
2023-06-27T06:02:44.644Z,101988.38
2023-06-27T06:05:12.952Z,101996.31
2023-06-27T06:07:43.641Z,101995.41
2023-06-27T06:10:12.669Z,102002.94
2023-06-27T06:12:40.929Z,101990.97
2023-06-27T06:15:09.233Z,101993.44
2023-06-27T06:17:37.451Z,101999.13
2023-06-27T06:20:10.045Z,102003.56
2023-06-27T06:22:38.479Z,102002.78
2023-06-27T06:25:06.840Z,102004.72
2023-06-27T06:27:34.527Z,102016.44
2023-06-27T06:30:02.440Z,102008.56
2023-06-27T06:32:30.949Z,102013.56
2023-06-27T06:34:59.908Z,102005.28
2023-06-27T06:37:27.730Z,102004.66
2023-06-27T06:39:55.516Z,102022.97
2023-06-27T06:42:23.173Z,102012.84
2023-06-27T06:44:50.867Z,102014.63
2023-06-27T06:47:18.538Z,102020.06
2023-06-27T06:49:46.401Z,102021.59
2023-06-27T06:52:14.158Z,102015.84
2023-06-27T06:54:44.717Z,102019.25
2023-06-27T06:57:12.610Z,102019.13
2023-06-27T06:59:40.266Z,102019.13
2023-06-27T07:02:08.033Z,102015.59
2023-06-27T07:04:35.839Z,102019.25
2023-06-27T07:07:04.117Z,102006.81
2023-06-27T07:09:31.765Z,102010.16
2023-06-27T07:11:59.915Z,102012.03
2023-06-27T07:14:28.004Z,102006.38
2023-06-27T07:16:55.630Z,102009.16
2023-06-27T07:19:23.920Z,101999.53
2023-06-27T07:21:51.574Z,102007.56
2023-06-27T07:24:19.172Z,102009.91
2023-06-27T07:26:46.820Z,102009.66
2023-06-27T07:29:14.458Z,102011.03
2023-06-27T07:31:42.099Z,102010.06
2023-06-27T07:34:09.815Z,102003.81
2023-06-27T07:36:37.611Z,102003.25
2023-06-27T07:39:06.421Z,102004.84
2023-06-27T07:41:34.064Z,102006.03
2023-06-27T07:44:01.959Z,102014.41
2023-06-27T07:46:30.223Z,102010.66
2023-06-27T07:49:00.584Z,102007.94
2023-06-27T07:51:29.613Z,102002.97
2023-06-27T07:53:58.109Z,102000.31
2023-06-27T07:56:26.042Z,101997.59
2023-06-27T07:58:53.950Z,102001.88
2023-06-27T08:01:21.751Z,101996.59
2023-06-27T08:03:49.474Z,102008.38
2023-06-27T08:06:17.219Z,102010.00
2023-06-27T08:08:45.047Z,102003.78
2023-06-27T08:11:12.805Z,102002.84
2023-06-27T08:13:42.689Z,102004.41
2023-06-27T08:16:11.966Z,102002.13
2023-06-27T08:18:39.541Z,102001.91
2023-06-27T08:21:07.206Z,102010.41
2023-06-27T08:23:34.918Z,102007.84
2023-06-27T08:26:02.515Z,102005.47
2023-06-27T08:28:30.722Z,102012.38
2023-06-27T08:30:59.431Z,102008.09
2023-06-27T08:33:27.069Z,102006.38
2023-06-27T08:35:55.657Z,102004.84
2023-06-27T08:38:24.338Z,102005.56
2023-06-27T08:40:56.112Z,101997.63
2023-06-27T08:43:24.657Z,102013.88
2023-06-27T08:45:55.107Z,102003.28
2023-06-27T08:48:23.576Z,102001.97
2023-06-27T08:50:54.938Z,102005.22
2023-06-27T08:53:24.685Z,102007.66
2023-06-27T08:56:08.070Z,102010.47
2023-06-27T08:58:52.371Z,102011.31
2023-06-27T09:01:22.818Z,102009.28
2023-06-27T09:03:51.062Z,102005.81
2023-06-27T09:06:19.800Z,102014.09
2023-06-27T09:08:47.772Z,102016.19
2023-06-27T09:11:15.774Z,102020.16
2023-06-27T09:13:44.033Z,102022.25
2023-06-27T09:16:12.109Z,102016.94
2023-06-27T09:18:40.890Z,102028.38
2023-06-27T09:21:08.871Z,102025.47
2023-06-27T09:23:36.832Z,102030.88
2023-06-27T09:26:14.829Z,102023.22
2023-06-27T09:28:50.849Z,102024.03
2023-06-27T09:31:22.707Z,102027.91
2023-06-27T09:33:53.649Z,102028.25
2023-06-27T09:39:09.997Z,102005.47
2023-06-27T09:41:46.916Z,102023.97
2023-06-27T09:44:18.179Z,102023.75
2023-06-27T09:46:46.882Z,102021.28
2023-06-27T09:49:16.219Z,102026.59
2023-06-27T09:51:52.026Z,102028.78
2023-06-27T09:54:22.494Z,102030.38
2023-06-27T09:56:54.037Z,102032.94
2023-06-27T09:59:25.189Z,102034.94
2023-06-27T10:01:54.716Z,102040.00
2023-06-27T10:04:39.039Z,102030.06
2023-06-27T10:07:09.278Z,102030.34
2023-06-27T10:09:39.452Z,102045.41
2023-06-27T10:12:09.251Z,102038.59
2023-06-27T10:14:37.674Z,102032.94
2023-06-27T10:17:08.829Z,102037.59
2023-06-27T10:19:37.648Z,102027.25
2023-06-27T10:22:16.333Z,102016.47
2023-06-27T10:24:47.284Z,102020.25
2023-06-27T10:27:21.303Z,102023.50
2023-06-27T10:29:49.316Z,102019.91
2023-06-27T10:32:20.455Z,102024.66
2023-06-27T10:34:48.478Z,102021.31
2023-06-27T10:37:27.041Z,102013.34
2023-06-27T10:40:02.262Z,102018.41
2023-06-27T10:42:32.609Z,102024.69
2023-06-27T10:45:06.932Z,102020.09
2023-06-27T10:47:46.822Z,102019.22
2023-06-27T10:50:22.834Z,102026.84
2023-06-27T10:53:08.800Z,102028.09
2023-06-27T10:55:38.871Z,102016.91
2023-06-27T10:58:15.529Z,102008.63
2023-06-27T11:00:45.538Z,102008.94
2023-06-27T11:03:13.891Z,102011.50
2023-06-27T11:05:45.399Z,102020.56
2023-06-27T11:08:16.652Z,102019.38
2023-06-27T11:11:04.620Z,102021.94
2023-06-27T11:13:36.190Z,102023.19
2023-06-27T11:16:05.108Z,102023.84
2023-06-27T11:18:33.679Z,102027.78
2023-06-27T11:21:01.491Z,102025.19
2023-06-27T11:23:31.923Z,102022.94
2023-06-27T11:26:00.394Z,102019.88
2023-06-27T11:28:28.177Z,102020.75
2023-06-27T11:31:03.038Z,102019.59
2023-06-27T11:33:30.994Z,102026.03
2023-06-27T11:36:01.227Z,102020.09
2023-06-27T11:38:30.291Z,102014.84
2023-06-27T11:40:58.258Z,102023.34
2023-06-27T11:43:26.550Z,102020.63
2023-06-27T11:45:56.320Z,102017.50
2023-06-27T11:48:23.968Z,102011.88
2023-06-27T11:50:59.579Z,102019.34
2023-06-27T11:53:29.072Z,102020.94
2023-06-27T11:58:32.539Z,102018.19
2023-06-27T12:01:01.565Z,102023.00
2023-06-27T12:03:35.427Z,102018.06
2023-06-27T12:06:03.406Z,102022.63
2023-06-27T12:08:32.931Z,102012.03
2023-06-27T12:11:03.386Z,102016.19
2023-06-27T12:13:39.466Z,102006.84
2023-06-27T12:16:08.797Z,101996.88
2023-06-27T12:18:36.417Z,102009.66
2023-06-27T12:21:03.994Z,102003.97
2023-06-27T12:23:32.350Z,101986.06
2023-06-27T12:26:00.208Z,101993.63
2023-06-27T12:28:27.951Z,101994.28
2023-06-27T12:30:55.772Z,101995.91
2023-06-27T12:33:23.383Z,101989.25
2023-06-27T12:35:52.956Z,101995.03
2023-06-27T12:38:20.603Z,101996.91
2023-06-27T12:40:48.276Z,101983.00
2023-06-27T12:43:15.833Z,101981.53
2023-06-27T12:45:44.832Z,101982.25
2023-06-27T12:48:12.853Z,101987.38
2023-06-27T12:50:40.842Z,102002.03
2023-06-27T12:53:11.405Z,101998.41
2023-06-27T12:55:38.957Z,101988.03
2023-06-27T12:58:06.624Z,101988.63
2023-06-27T13:00:38.874Z,101992.63
2023-06-27T13:03:18.028Z,101975.91
2023-06-27T13:05:47.423Z,101990.00
2023-06-27T13:08:15.818Z,101979.81
2023-06-27T13:10:44.373Z,101979.94
2023-06-27T13:13:12.043Z,101979.66
2023-06-27T13:15:41.972Z,101984.16
2023-06-27T13:18:10.781Z,101983.44
2023-06-27T13:20:38.662Z,101991.25
2023-06-27T13:23:07.425Z,101983.06
2023-06-27T13:25:35.191Z,101980.22
2023-06-27T13:28:02.872Z,101991.94
2023-06-27T13:30:30.513Z,101979.78
2023-06-27T13:32:58.181Z,101986.59
2023-06-27T13:35:25.867Z,101975.19
2023-06-27T13:38:01.389Z,101978.94
2023-06-27T13:40:30.330Z,101966.94
2023-06-27T13:42:58.309Z,101969.63
2023-06-27T13:45:26.216Z,101979.53
2023-06-27T13:47:54.343Z,101965.88
2023-06-27T13:50:22.251Z,101963.81
2023-06-27T13:52:49.885Z,101970.50
2023-06-27T13:55:17.535Z,101967.06
2023-06-27T13:57:45.253Z,101968.69
2023-06-27T14:00:13.646Z,101968.06
2023-06-27T14:02:41.410Z,101967.75
2023-06-27T14:05:10.784Z,101976.41
2023-06-27T14:07:39.491Z,101952.38
2023-06-27T14:10:07.646Z,101970.25
2023-06-27T14:12:35.373Z,101953.03
2023-06-27T14:15:04.449Z,101966.22
2023-06-27T14:17:33.565Z,101964.38
2023-06-27T14:20:01.475Z,101959.88
2023-06-27T14:22:29.187Z,101959.53
2023-06-27T14:24:56.759Z,101952.38
2023-06-27T14:27:26.860Z,101957.84
2023-06-27T14:29:54.596Z,101948.91
2023-06-27T14:32:23.150Z,101949.09
2023-06-27T14:34:50.764Z,101946.25
2023-06-27T14:37:18.408Z,101950.19
2023-06-27T14:39:45.986Z,101959.06
2023-06-27T14:42:13.642Z,101954.84
2023-06-27T14:44:41.229Z,101961.56
2023-06-27T14:47:09.141Z,101953.50
2023-06-27T14:49:36.903Z,101960.28
2023-06-27T14:52:06.845Z,101949.75
2023-06-27T14:54:34.444Z,101949.25
2023-06-27T14:57:03.015Z,101946.97
2023-06-27T14:59:31.718Z,101939.22
2023-06-27T15:01:59.463Z,101934.97
2023-06-27T15:04:27.046Z,101924.84
2023-06-27T15:06:55.843Z,101932.53
2023-06-27T15:09:24.091Z,101929.06
2023-06-27T15:11:51.675Z,101925.09
2023-06-27T15:14:19.478Z,101927.47
2023-06-27T15:16:47.075Z,101932.41
2023-06-27T15:19:14.762Z,101931.25
2023-06-27T15:21:42.566Z,101928.09
2023-06-27T15:24:10.307Z,101926.28
2023-06-27T15:26:37.904Z,101916.97
2023-06-27T15:29:34.822Z,101933.63
2023-06-27T15:32:02.429Z,101925.97
2023-06-27T15:34:29.994Z,101928.44
2023-06-27T15:36:57.547Z,101935.84
2023-06-27T15:39:25.231Z,101922.34
2023-06-27T15:41:52.838Z,101912.88
2023-06-27T15:44:20.764Z,101911.09
2023-06-27T15:46:49.563Z,101906.53
2023-06-27T15:49:17.324Z,101911.81
2023-06-27T15:51:45.432Z,101908.50
2023-06-27T15:54:14.576Z,101912.13
2023-06-27T15:56:42.823Z,101904.78
2023-06-27T15:59:10.424Z,101910.53
2023-06-27T16:01:38.041Z,101914.72
2023-06-27T16:04:05.911Z,101907.38
2023-06-27T16:06:36.539Z,101904.22
2023-06-27T16:09:05.538Z,101903.13
2023-06-27T16:11:34.015Z,101901.63
2023-06-27T16:14:01.970Z,101896.69
2023-06-27T16:16:29.647Z,101909.19
2023-06-27T16:18:57.231Z,101908.97
2023-06-27T16:21:24.955Z,101914.09
2023-06-27T16:23:52.734Z,101928.31
2023-06-27T16:26:20.372Z,101920.34
2023-06-27T16:28:48.016Z,101927.78
2023-06-27T16:31:15.639Z,101918.75
2023-06-27T16:33:43.283Z,101926.31
2023-06-27T16:36:12.749Z,101925.53
2023-06-27T16:38:40.774Z,101915.16
2023-06-27T16:41:08.667Z,101919.94
2023-06-27T16:43:36.367Z,101922.44
2023-06-27T16:46:04.153Z,101915.50
2023-06-27T16:48:31.763Z,101902.94
2023-06-27T16:50:59.341Z,101906.53
2023-06-27T16:53:26.956Z,101901.19
2023-06-27T16:55:54.503Z,101888.97
2023-06-27T16:58:22.320Z,101899.59
2023-06-27T17:00:49.890Z,101906.06
2023-06-27T17:03:19.361Z,101912.47
2023-06-27T17:05:47.278Z,101904.78
2023-06-27T17:08:15.318Z,101909.81
2023-06-27T17:10:45.904Z,101898.63
2023-06-27T17:13:15.643Z,101898.75
2023-06-27T17:15:44.755Z,101908.22
2023-06-27T17:18:12.725Z,101900.47
2023-06-27T17:20:40.341Z,101898.22
2023-06-27T17:23:09.953Z,101900.34
2023-06-27T17:25:37.558Z,101906.22
2023-06-27T17:28:05.499Z,101894.19
2023-06-27T17:30:33.257Z,101900.38
2023-06-27T17:33:00.985Z,101910.31
2023-06-27T17:35:28.738Z,101915.38
2023-06-27T17:37:56.288Z,101912.56
2023-06-27T17:40:24.232Z,101903.19
2023-06-27T17:42:51.918Z,101913.06
2023-06-27T17:45:19.605Z,101923.13
2023-06-27T17:47:47.250Z,101934.13
2023-06-27T17:50:14.961Z,101934.19
2023-06-27T17:52:43.701Z,101938.75
2023-06-27T17:55:11.819Z,101946.75
2023-06-27T17:57:39.484Z,101934.44
2023-06-27T18:00:07.976Z,101943.63
2023-06-27T18:02:36.933Z,101939.41
2023-06-27T18:05:04.677Z,101943.38
2023-06-27T18:07:37.855Z,101942.84
2023-06-27T18:10:08.230Z,101953.75
2023-06-27T18:12:35.828Z,101942.84
2023-06-27T18:15:05.198Z,101943.97
2023-06-27T18:17:32.901Z,101944.78
2023-06-27T18:20:00.616Z,101935.56
2023-06-27T18:22:28.304Z,101939.84
2023-06-27T18:24:55.988Z,101938.31
2023-06-27T18:27:23.685Z,101936.06
2023-06-27T18:29:51.380Z,101931.22
2023-06-27T18:32:19.260Z,101927.03
2023-06-27T18:34:47.080Z,101931.13
2023-06-27T18:37:14.719Z,101934.84
2023-06-27T18:39:42.348Z,101944.44
2023-06-27T18:42:09.915Z,101932.69
2023-06-27T18:44:37.947Z,101932.66
2023-06-27T18:47:05.788Z,101944.25
2023-06-27T18:49:33.849Z,101942.72
2023-06-27T18:52:04.891Z,101945.88
2023-06-27T18:54:33.676Z,101944.91
2023-06-27T18:57:01.276Z,101953.28
2023-06-27T18:59:28.931Z,101938.56
2023-06-27T19:01:56.626Z,101941.53
2023-06-27T19:04:24.359Z,101938.84
2023-06-27T19:06:52.873Z,101932.22
2023-06-27T19:09:21.124Z,101945.53
2023-06-27T19:11:48.944Z,101940.66
2023-06-27T19:14:17.721Z,101946.34
2023-06-27T19:16:45.740Z,101941.69
2023-06-27T19:19:14.255Z,101934.25
2023-06-27T19:21:42.934Z,101935.97
2023-06-27T19:24:12.309Z,101941.47
2023-06-27T19:26:40.017Z,101945.19
2023-06-27T19:29:08.346Z,101938.09
2023-06-27T19:31:36.555Z,101949.97
2023-06-27T19:34:06.390Z,101945.75
2023-06-27T19:36:34.405Z,101946.72
2023-06-27T19:39:02.785Z,101940.16
2023-06-27T19:41:30.929Z,101951.41
2023-06-27T19:43:59.459Z,101939.59
2023-06-27T19:46:27.622Z,101949.41
2023-06-27T19:48:55.887Z,101947.31
2023-06-27T19:51:23.887Z,101945.91
2023-06-27T19:53:51.829Z,101946.31
2023-06-27T19:56:20.030Z,101956.81
2023-06-27T19:58:48.280Z,101944.59
2023-06-27T20:01:16.481Z,101943.34
2023-06-27T20:03:44.891Z,101951.25
2023-06-27T20:06:13.322Z,101948.97
2023-06-27T20:08:42.031Z,101957.91
2023-06-27T20:11:10.619Z,101961.47
2023-06-27T20:13:39.889Z,101956.53
2023-06-27T20:16:07.972Z,101962.94
2023-06-27T20:18:36.033Z,101963.94
2023-06-27T20:21:04.109Z,101965.78
2023-06-27T20:23:32.202Z,101961.53
2023-06-27T20:26:00.453Z,101967.00
2023-06-27T20:28:28.633Z,101961.69
2023-06-27T20:30:56.815Z,101969.41
2023-06-27T20:33:25.292Z,101960.75
2023-06-27T20:35:53.789Z,101968.97
2023-06-27T20:38:22.156Z,101968.06
2023-06-27T20:40:50.333Z,101968.28
2023-06-27T20:43:18.403Z,101966.72
2023-06-27T20:45:46.858Z,101978.03
2023-06-27T20:48:14.957Z,101973.66
2023-06-27T20:50:43.296Z,101979.94
2023-06-27T20:53:11.224Z,101977.38
2023-06-27T20:55:39.102Z,101977.41
2023-06-27T20:58:11.012Z,101975.69
2023-06-27T21:00:39.551Z,101976.03
2023-06-27T21:03:09.792Z,101974.56
2023-06-27T21:05:37.630Z,101972.81
2023-06-27T21:08:05.530Z,101975.56
2023-06-27T21:10:33.128Z,101969.28
2023-06-27T21:13:00.868Z,101964.94
2023-06-27T21:15:28.462Z,101975.59
2023-06-27T21:17:56.085Z,101965.25
2023-06-27T21:20:23.659Z,101973.16
2023-06-27T21:22:51.334Z,101969.69
2023-06-27T21:25:18.957Z,101973.09
2023-06-27T21:27:51.468Z,101969.50
2023-06-27T21:30:19.446Z,101973.19
2023-06-27T21:32:47.347Z,101972.41
2023-06-27T21:35:15.042Z,101968.19
2023-06-27T21:37:42.662Z,101976.84
2023-06-27T21:40:10.952Z,101967.47
2023-06-27T21:42:38.630Z,101969.97
2023-06-27T21:45:06.957Z,101959.47
2023-06-27T21:47:34.720Z,101964.78
2023-06-27T21:50:02.405Z,101961.38
2023-06-27T21:52:30.046Z,101965.88
2023-06-27T21:54:57.773Z,101965.72
2023-06-27T21:57:25.319Z,101963.06
2023-06-27T21:59:52.892Z,101956.97
2023-06-27T22:02:20.650Z,101956.97
2023-06-27T22:04:48.463Z,101961.41
2023-06-27T22:07:16.498Z,101959.66
2023-06-27T22:09:44.170Z,101956.16
2023-06-27T22:12:11.756Z,101963.22
2023-06-27T22:14:39.306Z,101950.81
2023-06-27T22:17:07.251Z,101963.00
2023-06-27T22:19:35.036Z,101955.09
2023-06-27T22:22:02.582Z,101942.03
2023-06-27T22:24:30.336Z,101956.94
2023-06-27T22:26:58.127Z,101962.31
2023-06-27T22:29:25.858Z,101960.50
2023-06-27T22:31:53.676Z,101949.41
2023-06-27T22:34:21.331Z,101950.44
2023-06-27T22:36:49.167Z,101950.50
2023-06-27T22:39:16.911Z,101946.09
2023-06-27T22:41:44.946Z,101946.09
2023-06-27T22:44:12.478Z,101947.75
2023-06-27T22:46:40.198Z,101945.13
2023-06-27T22:49:07.898Z,101940.66
2023-06-27T22:51:35.536Z,101946.97
2023-06-27T22:54:03.184Z,101944.41
2023-06-27T22:56:32.190Z,101939.31
2023-06-27T22:58:59.948Z,101942.59
2023-06-27T23:01:28.270Z,101939.22
2023-06-27T23:03:56.280Z,101934.06
2023-06-27T23:06:23.891Z,101940.06
2023-06-27T23:08:51.549Z,101934.66
2023-06-27T23:11:19.178Z,101923.50
2023-06-27T23:13:46.781Z,101922.66
2023-06-27T23:16:14.849Z,101920.88
2023-06-27T23:18:43.604Z,101920.16
2023-06-27T23:21:11.631Z,101921.84
2023-06-27T23:23:40.037Z,101912.25
2023-06-27T23:26:14.181Z,101915.66
2023-06-27T23:28:49.575Z,101918.25
2023-06-27T23:31:20.883Z,101915.00
2023-06-27T23:33:49.278Z,101913.28
2023-06-27T23:36:16.900Z,101909.88
2023-06-27T23:38:44.517Z,101903.72
2023-06-27T23:41:12.124Z,101904.59
2023-06-27T23:43:39.739Z,101906.31
2023-06-27T23:46:07.457Z,101909.84
2023-06-27T23:48:35.148Z,101914.88
2023-06-27T23:51:02.739Z,101906.16
2023-06-27T23:53:30.487Z,101911.38
2023-06-27T23:55:58.084Z,101915.63
2023-06-27T23:58:25.648Z,101907.72
